createdAt,value
2019-01-10T00:03:04.946Z,88.09
2019-01-10T00:05:15.977Z,88.02
2019-01-10T00:07:26.754Z,87.96
2019-01-10T00:09:37.572Z,87.95
2019-01-10T00:11:48.371Z,87.77
2019-01-10T00:13:59.211Z,87.88
2019-01-10T00:16:10.009Z,88.03
2019-01-10T00:18:20.794Z,88.10
2019-01-10T00:20:31.620Z,88.01
2019-01-10T00:22:42.432Z,88.23
2019-01-10T00:24:53.244Z,88.32
2019-01-10T00:27:04.033Z,88.15
2019-01-10T00:29:14.830Z,88.06
2019-01-10T00:31:25.765Z,88.17
2019-01-10T00:33:36.557Z,88.03
2019-01-10T00:35:47.377Z,88.07
2019-01-10T00:37:58.165Z,87.99
2019-01-10T00:40:50.635Z,88.08
2019-01-10T00:43:01.538Z,87.90
2019-01-10T00:45:54.002Z,87.96
2019-01-10T00:48:04.802Z,88.01
2019-01-10T00:50:57.271Z,87.78
2019-01-10T00:53:08.088Z,87.71
2019-01-10T00:55:38.882Z,87.87
2019-01-10T00:57:49.704Z,87.87
2019-01-10T01:00:00.550Z,88.29
2019-01-10T01:02:11.336Z,88.43
2019-01-10T01:04:22.144Z,88.38
2019-01-10T01:06:32.962Z,88.26
2019-01-10T01:08:43.857Z,88.21
2019-01-10T01:10:54.667Z,88.18
2019-01-10T01:13:47.121Z,87.97
2019-01-10T01:15:57.932Z,87.77
2019-01-10T01:18:08.727Z,87.95
2019-01-10T01:21:01.206Z,88.16
2019-01-10T01:23:12.013Z,88.07
2019-01-10T01:25:22.810Z,87.99
2019-01-10T01:27:33.631Z,88.09
2019-01-10T01:29:44.468Z,88.08
2019-01-10T01:31:55.311Z,88.03
2019-01-10T01:34:06.207Z,88.07
2019-01-10T01:36:17.114Z,88.07
2019-01-10T01:38:27.941Z,88.09
2019-01-10T01:40:38.755Z,88.18
2019-01-10T01:42:49.568Z,88.20
2019-01-10T01:45:00.383Z,88.28
2019-01-10T01:47:11.194Z,88.29
2019-01-10T01:50:03.734Z,88.28
2019-01-10T01:52:14.636Z,88.33
2019-01-10T01:54:25.440Z,88.32
2019-01-10T01:56:36.232Z,88.21
2019-01-10T01:58:47.053Z,88.15
2019-01-10T02:00:57.842Z,88.10
2019-01-10T02:03:08.671Z,88.16
2019-01-10T02:05:19.565Z,88.34
2019-01-10T02:07:30.362Z,88.36
2019-01-10T02:09:41.188Z,88.29
2019-01-10T02:14:24.464Z,88.28
2019-01-10T02:16:35.261Z,88.14
2019-01-10T02:18:46.083Z,88.04
2019-01-10T02:20:56.865Z,88.12
2019-01-10T02:23:07.879Z,88.14
2019-01-10T02:25:18.798Z,88.35
2019-01-10T02:27:29.605Z,88.50
2019-01-10T02:29:40.414Z,88.37
2019-01-10T02:31:51.221Z,88.35
2019-01-10T02:34:02.131Z,88.24
2019-01-10T02:36:12.934Z,88.34
2019-01-10T02:38:23.732Z,88.37
2019-01-10T02:40:34.659Z,88.46
2019-01-10T02:42:45.465Z,88.45
2019-01-10T02:44:56.284Z,88.48
2019-01-10T02:47:07.086Z,88.50
2019-01-10T02:49:17.897Z,88.43
2019-01-10T02:51:28.723Z,88.51
2019-01-10T02:53:39.513Z,88.58
2019-01-10T02:55:50.343Z,88.61
2019-01-10T02:58:01.138Z,88.62
2019-01-10T03:00:53.637Z,88.73
2019-01-10T03:03:04.429Z,88.87
2019-01-10T03:05:15.319Z,89.09
2019-01-10T03:07:26.132Z,88.89
2019-01-10T03:09:36.923Z,88.70
2019-01-10T03:11:47.748Z,88.67
2019-01-10T03:13:58.557Z,88.65
2019-01-10T03:16:09.369Z,88.66
2019-01-10T03:18:20.162Z,88.70
2019-01-10T03:20:30.959Z,88.61
2019-01-10T03:22:41.786Z,88.65
2019-01-10T03:24:52.585Z,88.71
2019-01-10T03:27:03.392Z,88.63
2019-01-10T03:29:14.211Z,88.50
2019-01-10T03:31:25.039Z,88.51
2019-01-10T03:33:35.954Z,88.63
2019-01-10T03:35:46.848Z,88.65
2019-01-10T03:37:57.658Z,88.47
2019-01-10T03:40:50.135Z,88.34
2019-01-10T03:43:00.960Z,88.25
2019-01-10T03:45:53.406Z,88.25
2019-01-10T03:48:04.215Z,88.23
2019-01-10T03:50:56.670Z,88.29
2019-01-10T03:53:07.501Z,88.36
2019-01-10T03:55:18.300Z,88.13
2019-01-10T03:57:29.145Z,88.14
2019-01-10T03:59:40.040Z,88.38
2019-01-10T04:01:50.848Z,88.65
2019-01-10T04:04:01.697Z,88.75
2019-01-10T04:06:12.477Z,88.62
2019-01-10T04:08:23.293Z,88.47
2019-01-10T04:10:34.072Z,88.41
2019-01-10T04:12:45.016Z,88.55
2019-01-10T04:14:55.798Z,88.65
2019-01-10T04:17:06.719Z,88.62
2019-01-10T04:19:17.539Z,88.53
2019-01-10T04:21:28.337Z,88.62
2019-01-10T04:23:39.140Z,88.75
2019-01-10T04:25:49.938Z,88.76
2019-01-10T04:28:00.741Z,88.83
2019-01-10T04:30:33.333Z,88.68
2019-01-10T04:32:44.137Z,88.61
2019-01-10T04:34:54.951Z,88.65
2019-01-10T04:37:05.790Z,88.68
2019-01-10T04:39:16.608Z,88.60
2019-01-10T04:41:27.499Z,88.42
2019-01-10T04:43:38.293Z,88.53
2019-01-10T04:45:49.093Z,88.50
2019-01-10T04:47:59.892Z,88.27
2019-01-10T04:50:52.390Z,88.11
2019-01-10T04:53:03.175Z,88.11
2019-01-10T04:55:13.997Z,88.05
2019-01-10T04:57:24.823Z,88.09
2019-01-10T04:59:35.734Z,88.26
2019-01-10T05:01:46.539Z,88.34
2019-01-10T05:03:57.344Z,88.26
2019-01-10T05:06:08.153Z,88.00
2019-01-10T05:08:18.951Z,88.01
2019-01-10T05:10:29.774Z,88.10
2019-01-10T05:12:41.820Z,88.17
2019-01-10T05:14:53.265Z,87.89
2019-01-10T05:17:04.176Z,87.79
2019-01-10T05:19:14.989Z,87.78
2019-01-10T05:21:25.804Z,87.88
2019-01-10T05:23:36.589Z,87.92
2019-01-10T05:25:47.397Z,87.94
2019-01-10T05:27:58.220Z,88.08
2019-01-10T05:30:50.667Z,88.05
2019-01-10T05:33:01.496Z,92.30
2019-01-10T05:35:12.406Z,93.86
2019-01-10T05:37:23.231Z,92.08
2019-01-10T05:39:34.039Z,88.22
2019-01-10T05:41:44.859Z,86.56
2019-01-10T05:43:55.653Z,86.17
2019-01-10T05:46:06.453Z,86.17
2019-01-10T05:48:17.319Z,86.17
2019-01-10T05:50:28.092Z,85.91
2019-01-10T05:52:39.015Z,86.02
2019-01-10T05:54:49.834Z,86.11
2019-01-10T05:57:00.623Z,86.27
2019-01-10T05:59:11.453Z,86.27
2019-01-10T06:01:22.347Z,86.47
2019-01-10T06:03:33.159Z,86.31
2019-01-10T06:05:43.948Z,86.47
2019-01-10T06:07:54.858Z,86.69
2019-01-10T06:10:47.318Z,86.84
2019-01-10T06:12:58.124Z,87.03
2019-01-10T06:15:50.577Z,86.92
2019-01-10T06:18:01.380Z,87.10
2019-01-10T06:20:32.041Z,87.39
2019-01-10T06:22:42.843Z,87.51
2019-01-10T06:24:53.660Z,87.50
2019-01-10T06:27:04.445Z,87.52
2019-01-10T06:29:15.252Z,87.48
2019-01-10T06:31:26.059Z,87.37
2019-01-10T06:33:36.910Z,87.31
2019-01-10T06:35:47.725Z,87.21
2019-01-10T06:37:58.632Z,87.32
2019-01-10T06:40:51.105Z,87.52
2019-01-10T06:43:01.909Z,87.55
2019-01-10T06:45:54.368Z,87.49
2019-01-10T06:48:05.156Z,87.51
2019-01-10T06:50:57.638Z,87.48
2019-01-10T06:53:08.446Z,87.59
2019-01-10T06:55:19.263Z,87.66
2019-01-10T06:57:30.054Z,87.66
2019-01-10T06:59:40.900Z,87.62
2019-01-10T07:01:51.705Z,87.50
2019-01-10T07:04:02.685Z,87.34
2019-01-10T07:06:13.498Z,87.33
2019-01-10T07:08:24.300Z,87.45
2019-01-10T07:10:35.113Z,87.53
2019-01-10T07:13:05.791Z,87.48
2019-01-10T07:15:16.638Z,87.48
2019-01-10T07:17:27.456Z,87.42
2019-01-10T07:19:58.128Z,87.48
2019-01-10T07:22:08.942Z,87.48
2019-01-10T07:24:21.186Z,87.31
2019-01-10T07:26:32.531Z,87.93
2019-01-10T07:28:43.430Z,90.40
2019-01-10T07:33:32.688Z,89.33
2019-01-10T07:36:25.142Z,88.40
2019-01-10T07:38:35.971Z,87.98
2019-01-10T07:40:46.768Z,87.90
2019-01-10T07:42:57.724Z,87.89
2019-01-10T07:45:50.163Z,87.98
2019-01-10T07:48:42.614Z,88.05
2019-01-10T07:50:53.414Z,88.00
2019-01-10T07:53:04.333Z,88.14
2019-01-10T07:55:15.129Z,88.28
2019-01-10T07:57:25.949Z,88.03
2019-01-10T07:59:36.756Z,87.86
2019-01-10T08:01:47.645Z,87.93
2019-01-10T08:03:58.475Z,88.07
2019-01-10T08:06:09.386Z,88.13
2019-01-10T08:08:20.318Z,87.99
2019-01-10T08:13:03.692Z,87.93
2019-01-10T08:15:56.127Z,88.03
2019-01-10T08:18:06.940Z,87.90
2019-01-10T08:20:18.147Z,87.65
2019-01-10T08:22:30.703Z,87.74
2019-01-10T08:24:41.513Z,87.80
2019-01-10T08:26:52.312Z,87.72
2019-01-10T08:29:03.132Z,87.62
2019-01-10T08:31:13.943Z,87.80
2019-01-10T08:33:24.779Z,88.01
2019-01-10T08:35:35.657Z,88.15
2019-01-10T08:37:46.568Z,88.13
2019-01-10T08:39:57.383Z,88.07
2019-01-10T08:42:08.174Z,88.11
2019-01-10T08:44:19.013Z,88.27
2019-01-10T08:46:29.777Z,88.36
2019-01-10T08:48:40.574Z,88.21
2019-01-10T08:50:51.388Z,88.30
2019-01-10T08:53:02.287Z,88.35
2019-01-10T08:55:13.114Z,88.60
2019-01-10T08:57:23.917Z,88.62
2019-01-10T08:59:34.710Z,88.54
2019-01-10T09:01:45.525Z,88.45
2019-01-10T09:03:56.337Z,88.43
2019-01-10T09:06:08.214Z,88.10
2019-01-10T09:08:19.968Z,87.85
2019-01-10T09:10:30.892Z,87.74
2019-01-10T09:12:41.685Z,87.59
2019-01-10T09:14:52.499Z,87.66
2019-01-10T09:17:03.406Z,87.71
2019-01-10T09:19:14.311Z,87.39
2019-01-10T09:21:25.118Z,87.38
2019-01-10T09:23:55.817Z,87.15
2019-01-10T09:26:06.643Z,87.15
2019-01-10T09:28:17.446Z,86.82
2019-01-10T09:30:28.281Z,86.49
2019-01-10T09:32:39.103Z,86.30
2019-01-10T09:34:50.000Z,86.28
2019-01-10T09:37:08.233Z,86.58
2019-01-10T09:39:19.053Z,86.81
2019-01-10T09:41:29.871Z,86.97
2019-01-10T09:43:40.843Z,86.86
2019-01-10T09:45:51.653Z,86.66
2019-01-10T09:48:02.667Z,86.65
2019-01-10T09:50:55.144Z,86.41
2019-01-10T09:53:06.059Z,86.29
2019-01-10T09:55:16.870Z,86.32
2019-01-10T09:57:27.690Z,86.40
2019-01-10T09:59:38.490Z,86.58
2019-01-10T10:02:31.044Z,86.47
2019-01-10T10:04:41.836Z,86.48
2019-01-10T10:06:52.649Z,85.94
2019-01-10T10:09:45.099Z,85.85
2019-01-10T10:11:55.932Z,85.98
2019-01-10T10:14:06.918Z,86.21
2019-01-10T10:16:17.813Z,85.92
2019-01-10T10:18:28.654Z,85.89
2019-01-10T10:20:39.506Z,86.12
2019-01-10T10:22:50.400Z,86.30
2019-01-10T10:25:01.414Z,85.96
2019-01-10T10:27:12.204Z,85.49
2019-01-10T10:29:23.019Z,85.37
2019-01-10T10:31:33.953Z,85.43
2019-01-10T10:33:44.909Z,85.38
2019-01-10T10:35:55.720Z,85.15
2019-01-10T10:38:06.543Z,85.21
2019-01-10T10:40:59.006Z,85.23
2019-01-10T10:43:09.834Z,85.44
2019-01-10T10:45:20.770Z,85.28
2019-01-10T10:47:31.564Z,85.21
2019-01-10T10:49:42.392Z,85.23
2019-01-10T10:51:53.231Z,85.24
2019-01-10T10:54:04.151Z,85.27
2019-01-10T10:56:15.005Z,85.46
2019-01-10T10:58:25.943Z,85.56
2019-01-10T11:00:36.736Z,85.65
2019-01-10T11:02:47.531Z,85.44
2019-01-10T11:04:58.335Z,85.44
2019-01-10T11:07:09.123Z,85.47
2019-01-10T11:09:19.962Z,85.36
2019-01-10T11:11:30.758Z,85.25
2019-01-10T11:13:41.568Z,85.13
2019-01-10T11:15:52.401Z,84.86
2019-01-10T11:18:03.388Z,84.73
2019-01-10T11:20:55.862Z,84.87
2019-01-10T11:23:10.875Z,84.98
2019-01-10T11:26:01.217Z,85.03
2019-01-10T11:28:12.010Z,84.92
2019-01-10T11:30:22.923Z,84.97
2019-01-10T11:32:33.733Z,84.99
2019-01-10T11:34:44.558Z,84.77
2019-01-10T11:36:55.371Z,84.59
2019-01-10T11:39:47.847Z,84.70
2019-01-10T11:41:58.657Z,84.69
2019-01-10T11:44:09.569Z,84.49
2019-01-10T11:46:20.502Z,84.12
2019-01-10T11:48:31.309Z,84.13
2019-01-10T11:50:42.126Z,84.30
2019-01-10T11:52:52.932Z,84.60
2019-01-10T11:55:45.402Z,84.72
2019-01-10T11:57:56.185Z,84.66
2019-01-10T12:00:27.397Z,84.48
2019-01-10T12:02:38.200Z,84.31
2019-01-10T12:04:48.998Z,84.79
2019-01-10T12:06:59.924Z,85.06
2019-01-10T12:09:10.732Z,84.96
2019-01-10T12:11:21.549Z,84.91
2019-01-10T12:13:32.394Z,84.17
2019-01-10T12:15:43.211Z,83.97
2019-01-10T12:17:54.061Z,83.68
2019-01-10T12:20:24.867Z,84.00
2019-01-10T12:22:35.687Z,84.28
2019-01-10T12:24:46.476Z,84.41
2019-01-10T12:26:57.316Z,84.43
2019-01-10T12:29:08.198Z,84.55
2019-01-10T12:31:19.024Z,84.58
2019-01-10T12:33:29.872Z,84.50
2019-01-10T12:35:40.664Z,84.17
2019-01-10T12:37:51.580Z,84.33
2019-01-10T12:40:44.029Z,84.48
2019-01-10T12:42:54.846Z,84.32
2019-01-10T12:45:47.307Z,84.47
2019-01-10T12:47:58.155Z,83.93
2019-01-10T12:50:50.580Z,84.11
2019-01-10T12:55:20.071Z,84.01
2019-01-10T12:57:30.896Z,83.58
2019-01-10T12:59:41.721Z,83.51
2019-01-10T13:01:52.535Z,83.74
2019-01-10T13:04:03.349Z,83.73
2019-01-10T13:06:14.160Z,83.64
2019-01-10T13:08:24.986Z,83.08
2019-01-10T13:10:35.804Z,82.80
2019-01-10T13:13:28.301Z,82.85
2019-01-10T13:15:39.072Z,83.07
2019-01-10T13:17:49.869Z,82.61
2019-01-10T13:20:00.688Z,82.83
2019-01-10T13:22:11.595Z,83.25
2019-01-10T13:24:22.417Z,83.04
2019-01-10T13:26:33.197Z,83.15
2019-01-10T13:28:44.032Z,90.14
2019-01-10T13:30:54.861Z,89.33
2019-01-10T13:33:05.778Z,82.13
2019-01-10T13:35:16.712Z,76.56
2019-01-10T13:37:27.529Z,76.88
2019-01-10T13:39:38.348Z,77.04
2019-01-10T13:41:49.164Z,76.74
2019-01-10T13:44:00.083Z,77.84
2019-01-10T13:46:11.012Z,78.06
2019-01-10T13:48:21.820Z,78.64
2019-01-10T13:50:32.747Z,79.09
2019-01-10T13:52:43.636Z,79.18
2019-01-10T13:54:54.459Z,79.21
2019-01-10T13:57:05.304Z,79.23
2019-01-10T13:59:16.114Z,79.79
2019-01-10T14:01:27.062Z,80.00
2019-01-10T14:03:37.935Z,80.07
2019-01-10T14:05:48.861Z,80.24
2019-01-10T14:07:59.765Z,80.06
2019-01-10T14:10:52.229Z,80.15
2019-01-10T14:13:03.144Z,80.42
2019-01-10T14:15:33.848Z,80.43
2019-01-10T14:17:44.859Z,80.38
2019-01-10T14:22:28.132Z,80.91
2019-01-10T14:24:38.989Z,81.23
2019-01-10T14:26:49.782Z,81.28
2019-01-10T14:29:00.697Z,81.47
2019-01-10T14:31:11.662Z,81.50
2019-01-10T14:33:22.506Z,81.16
2019-01-10T14:35:33.440Z,80.90
2019-01-10T14:37:44.380Z,81.28
2019-01-10T14:39:55.184Z,81.43
2019-01-10T14:42:06.022Z,81.58
2019-01-10T14:44:16.826Z,81.41
2019-01-10T14:46:27.639Z,81.41
2019-01-10T14:48:38.449Z,81.46
2019-01-10T14:50:49.268Z,81.64
2019-01-10T14:53:00.122Z,81.60
2019-01-10T14:55:52.617Z,81.69
2019-01-10T14:58:45.082Z,81.68
2019-01-10T15:00:55.862Z,81.86
2019-01-10T15:03:06.798Z,81.95
2019-01-10T15:05:59.262Z,81.98
2019-01-10T15:08:10.185Z,81.77
2019-01-10T15:10:21.085Z,81.81
2019-01-10T15:12:31.989Z,81.71
2019-01-10T15:14:42.816Z,81.49
2019-01-10T15:16:53.647Z,81.63
2019-01-10T15:19:04.583Z,81.78
2019-01-10T15:21:15.382Z,81.78
2019-01-10T15:23:26.204Z,81.68
2019-01-10T15:25:37.037Z,81.57
2019-01-10T15:27:47.839Z,81.38
2019-01-10T15:29:58.679Z,81.23
2019-01-10T15:32:09.470Z,81.26
2019-01-10T15:34:20.307Z,81.54
2019-01-10T15:36:31.231Z,81.26
2019-01-10T15:38:42.032Z,81.10
2019-01-10T15:40:52.833Z,81.27
2019-01-10T15:43:03.838Z,81.44
2019-01-10T15:45:14.869Z,81.50
2019-01-10T15:47:25.795Z,80.97
2019-01-10T15:49:36.625Z,80.95
2019-01-10T15:51:47.432Z,80.73
2019-01-10T15:53:58.234Z,80.94
2019-01-10T15:56:09.071Z,80.84
2019-01-10T15:58:19.874Z,80.61
2019-01-10T16:00:30.701Z,80.45
2019-01-10T16:02:41.629Z,80.47
2019-01-10T16:04:52.437Z,80.29
2019-01-10T16:07:03.292Z,80.25
2019-01-10T16:09:14.195Z,80.53
2019-01-10T16:11:25.030Z,80.58
2019-01-10T16:13:35.957Z,80.70
2019-01-10T16:15:46.787Z,80.29
2019-01-10T16:17:57.615Z,80.48
2019-01-10T16:20:50.103Z,80.42
2019-01-10T16:23:01.000Z,80.42
2019-01-10T16:25:53.444Z,80.29
2019-01-10T16:28:04.362Z,80.32
2019-01-10T16:30:35.033Z,80.60
2019-01-10T16:32:45.848Z,80.41
2019-01-10T16:34:56.784Z,80.40
2019-01-10T16:37:07.619Z,80.32
2019-01-10T16:39:18.461Z,80.68
2019-01-10T16:41:29.376Z,80.92
2019-01-10T16:43:40.194Z,80.56
2019-01-10T16:45:51.007Z,80.15
2019-01-10T16:48:43.492Z,80.03
2019-01-10T16:50:54.291Z,80.11
2019-01-10T16:53:05.152Z,80.05
2019-01-10T16:55:16.277Z,80.20
2019-01-10T16:57:27.096Z,80.21
2019-01-10T16:59:37.917Z,80.19
2019-01-10T17:01:48.714Z,80.15
2019-01-10T17:03:59.540Z,80.26
2019-01-10T17:06:10.343Z,80.29
2019-01-10T17:08:21.148Z,80.41
2019-01-10T17:10:32.179Z,80.15
2019-01-10T17:12:42.971Z,79.87
2019-01-10T17:14:53.835Z,79.93
2019-01-10T17:17:04.620Z,80.20
2019-01-10T17:19:15.431Z,80.65
2019-01-10T17:21:26.296Z,80.54
2019-01-10T17:23:37.097Z,80.22
2019-01-10T17:25:47.904Z,80.00
2019-01-10T17:27:58.717Z,80.09
2019-01-10T17:30:31.330Z,79.96
2019-01-10T17:32:42.137Z,79.55
2019-01-10T17:34:52.963Z,79.64
2019-01-10T17:37:03.885Z,79.70
2019-01-10T17:39:14.810Z,79.49
2019-01-10T17:41:25.640Z,79.50
2019-01-10T17:43:36.440Z,79.53
2019-01-10T17:45:47.410Z,79.29
2019-01-10T17:48:39.851Z,78.99
2019-01-10T17:50:50.678Z,78.87
2019-01-10T17:53:01.501Z,78.85
2019-01-10T17:55:53.962Z,79.03
2019-01-10T17:58:46.409Z,79.22
2019-01-10T18:00:57.272Z,78.86
2019-01-10T18:03:08.062Z,78.50
2019-01-10T18:05:18.966Z,78.79
2019-01-10T18:07:29.802Z,79.01
2019-01-10T18:09:40.612Z,78.97
2019-01-10T18:11:51.427Z,78.88
2019-01-10T18:14:02.232Z,78.85
2019-01-10T18:16:13.068Z,78.87
2019-01-10T18:18:23.983Z,78.83
2019-01-10T18:21:16.444Z,78.66
2019-01-10T18:23:27.294Z,76.85
2019-01-10T18:25:38.239Z,77.05
2019-01-10T18:28:30.699Z,77.31
2019-01-10T18:30:43.402Z,77.32
2019-01-10T18:32:54.274Z,76.83
2019-01-10T18:37:37.711Z,76.08
2019-01-10T18:39:48.557Z,76.29
2019-01-10T18:41:59.362Z,76.46
2019-01-10T18:44:10.215Z,76.65
2019-01-10T18:46:21.121Z,76.99
2019-01-10T18:48:31.954Z,77.23
2019-01-10T18:50:42.819Z,77.50
2019-01-10T18:52:53.728Z,77.83
2019-01-10T18:57:22.221Z,77.73
2019-01-10T18:59:33.079Z,77.85
2019-01-10T19:01:43.897Z,77.75
2019-01-10T19:03:54.703Z,77.79
2019-01-10T19:06:06.083Z,77.80
2019-01-10T19:08:18.312Z,77.81
2019-01-10T19:10:29.172Z,77.92
2019-01-10T19:12:39.983Z,77.90
2019-01-10T19:14:50.906Z,77.94
2019-01-10T19:17:01.766Z,78.10
2019-01-10T19:19:12.622Z,78.39
2019-01-10T19:21:23.446Z,78.56
2019-01-10T19:23:34.511Z,78.66
2019-01-10T19:25:45.340Z,78.62
2019-01-10T19:27:56.181Z,78.45
2019-01-10T19:30:48.666Z,78.36
2019-01-10T19:32:59.470Z,78.23
2019-01-10T19:35:10.581Z,77.90
2019-01-10T19:37:21.402Z,77.72
2019-01-10T19:39:32.202Z,77.58
2019-01-10T19:41:43.026Z,77.50
2019-01-10T19:43:53.840Z,77.46
2019-01-10T19:46:04.700Z,77.23
2019-01-10T19:48:15.552Z,77.28
2019-01-10T19:50:26.602Z,76.90
2019-01-10T19:52:37.440Z,76.94
2019-01-10T19:54:48.245Z,77.07
2019-01-10T19:56:59.112Z,76.60
2019-01-10T19:59:09.910Z,76.52
2019-01-10T20:03:53.094Z,76.77
2019-01-10T20:06:04.003Z,76.61
2019-01-10T20:08:14.856Z,76.50
2019-01-10T20:10:25.668Z,76.14
2019-01-10T20:12:36.493Z,76.32
2019-01-10T20:14:47.338Z,76.50
2019-01-10T20:16:58.246Z,76.44
2019-01-10T20:21:27.986Z,76.54
2019-01-10T20:23:38.837Z,76.53
2019-01-10T20:25:49.649Z,76.63
2019-01-10T20:28:00.514Z,76.79
2019-01-10T20:30:52.926Z,76.82
2019-01-10T20:33:03.868Z,76.86
2019-01-10T20:35:56.354Z,76.49
2019-01-10T20:38:07.410Z,76.69
2019-01-10T20:40:18.460Z,76.80
2019-01-10T20:42:29.301Z,76.87
2019-01-10T20:44:40.146Z,76.92
2019-01-10T20:46:51.047Z,77.08
2019-01-10T20:49:01.964Z,77.19
2019-01-10T20:51:12.791Z,77.26
2019-01-10T20:53:23.735Z,77.41
2019-01-10T20:55:34.660Z,77.37
2019-01-10T20:57:45.479Z,77.26
2019-01-10T20:59:56.340Z,76.91
2019-01-10T21:02:07.246Z,76.88
2019-01-10T21:04:18.106Z,77.85
2019-01-10T21:06:28.919Z,78.78
2019-01-10T21:08:39.731Z,79.45
2019-01-10T21:13:13.022Z,80.32
2019-01-10T21:16:05.477Z,80.90
2019-01-10T21:18:16.398Z,81.27
2019-01-10T21:20:27.447Z,81.83
2019-01-10T21:22:38.360Z,82.15
2019-01-10T21:24:49.172Z,82.42
2019-01-10T21:27:00.047Z,82.53
2019-01-10T21:29:52.703Z,82.66
2019-01-10T21:32:03.536Z,82.74
2019-01-10T21:34:14.363Z,82.86
2019-01-10T21:36:25.316Z,82.86
2019-01-10T21:38:36.106Z,82.96
2019-01-10T21:40:46.951Z,83.07
2019-01-10T21:42:57.787Z,83.05
2019-01-10T21:45:28.567Z,83.00
2019-01-10T21:47:39.503Z,82.99
2019-01-10T21:49:50.313Z,83.03
2019-01-10T21:52:01.173Z,83.02
2019-01-10T21:54:12.176Z,83.02
2019-01-10T21:56:22.995Z,83.19
2019-01-10T21:58:33.937Z,83.26
2019-01-10T22:00:44.743Z,83.30
2019-01-10T22:03:37.233Z,83.40
2019-01-10T22:05:48.133Z,83.59
2019-01-10T22:07:58.953Z,83.61
2019-01-10T22:10:51.423Z,83.62
2019-01-10T22:13:02.550Z,83.59
2019-01-10T22:15:55.031Z,83.65
2019-01-10T22:20:24.874Z,83.80
2019-01-10T22:22:35.682Z,83.92
2019-01-10T22:24:46.504Z,84.09
2019-01-10T22:26:57.298Z,84.17
2019-01-10T22:29:08.103Z,84.17
2019-01-10T22:31:18.902Z,84.35
2019-01-10T22:33:29.725Z,84.30
2019-01-10T22:35:40.762Z,84.25
2019-01-10T22:37:51.647Z,84.25
2019-01-10T22:40:44.131Z,84.31
2019-01-10T22:42:54.949Z,84.31
2019-01-10T22:45:47.413Z,84.20
2019-01-10T22:47:58.218Z,84.19
2019-01-10T22:50:50.681Z,84.07
2019-01-10T22:53:01.487Z,84.19
2019-01-10T22:55:53.943Z,84.32
2019-01-10T22:58:04.762Z,84.38
2019-01-10T23:03:17.167Z,84.36
2019-01-10T23:05:27.999Z,84.38
2019-01-10T23:07:38.788Z,84.32
2019-01-10T23:09:49.606Z,84.20
2019-01-10T23:12:00.411Z,83.94
2019-01-10T23:14:11.222Z,83.60
2019-01-10T23:16:22.244Z,83.57
2019-01-10T23:19:14.733Z,83.57
2019-01-10T23:21:25.643Z,83.55
2019-01-10T23:23:36.441Z,83.54
2019-01-10T23:26:07.132Z,83.29
2019-01-10T23:28:17.960Z,83.15
2019-01-10T23:31:09.026Z,83.17
2019-01-10T23:34:01.481Z,83.02
2019-01-10T23:36:12.449Z,82.67
2019-01-10T23:38:23.369Z,82.47
2019-01-10T23:40:34.218Z,82.48
2019-01-10T23:42:45.020Z,82.52
2019-01-10T23:44:55.835Z,82.54
2019-01-10T23:47:06.627Z,82.44
2019-01-10T23:49:17.440Z,82.45
2019-01-10T23:51:28.251Z,82.54
2019-01-10T23:53:39.079Z,82.64
2019-01-10T23:55:49.987Z,82.84
2019-01-10T23:58:00.845Z,82.82
